createdAt,value
2018-12-29T00:00:01.659Z,1022.1
2018-12-29T00:01:03.024Z,1022.0
2018-12-29T00:02:04.389Z,1022.0
2018-12-29T00:03:05.750Z,1022.0
2018-12-29T00:04:07.117Z,1022.0
2018-12-29T00:05:08.476Z,1022.0
2018-12-29T00:06:09.840Z,1022.0
2018-12-29T00:07:11.205Z,1022.0
2018-12-29T00:08:12.570Z,1021.9
2018-12-29T00:09:13.934Z,1021.9
2018-12-29T00:10:15.296Z,1021.9
2018-12-29T00:11:16.660Z,1021.9
2018-12-29T00:12:18.021Z,1021.9
2018-12-29T00:13:19.548Z,1021.9
2018-12-29T00:14:20.845Z,1021.9
2018-12-29T00:15:22.208Z,1021.9
2018-12-29T00:16:23.580Z,1021.9
2018-12-29T00:17:24.938Z,1021.9
2018-12-29T00:18:26.300Z,1021.8
2018-12-29T00:19:27.664Z,1021.8
2018-12-29T00:20:29.027Z,1021.9
2018-12-29T00:21:30.397Z,1022.0
2018-12-29T00:22:31.760Z,1022.0
2018-12-29T00:23:33.120Z,1022.0
2018-12-29T00:24:34.483Z,1022.0
2018-12-29T00:25:35.848Z,1022.0
2018-12-29T00:26:37.212Z,1022.0
2018-12-29T00:27:38.578Z,1021.9
2018-12-29T00:28:39.945Z,1021.9
2018-12-29T00:29:41.307Z,1021.9
2018-12-29T00:30:42.672Z,1021.9
2018-12-29T00:31:44.034Z,1021.9
2018-12-29T00:32:45.405Z,1021.9
2018-12-29T00:33:46.763Z,1021.9
2018-12-29T00:34:48.123Z,1021.8
2018-12-29T00:35:49.489Z,1021.8
2018-12-29T00:36:50.855Z,1021.9
2018-12-29T00:37:52.216Z,1021.8
2018-12-29T00:38:53.584Z,1021.8
2018-12-29T00:39:54.946Z,1021.9
2018-12-29T00:40:56.310Z,1021.9
2018-12-29T00:41:57.674Z,1021.9
2018-12-29T00:42:59.038Z,1021.9
2018-12-29T00:44:00.403Z,1021.9
2018-12-29T00:45:02.701Z,1021.9
2018-12-29T00:46:03.094Z,1021.9
2018-12-29T00:47:04.457Z,1021.9
2018-12-29T00:48:05.819Z,1021.8
2018-12-29T00:49:07.185Z,1021.7
2018-12-29T00:50:08.547Z,1021.8
2018-12-29T00:51:09.911Z,1021.7
2018-12-29T00:52:11.303Z,1021.8
2018-12-29T00:53:12.664Z,1021.8
2018-12-29T00:54:14.025Z,1021.8
2018-12-29T00:55:15.388Z,1021.8
2018-12-29T00:56:16.755Z,1021.8
2018-12-29T00:57:18.118Z,1021.8
2018-12-29T00:58:19.482Z,1021.8
2018-12-29T00:59:20.845Z,1021.8
2018-12-29T01:00:22.205Z,1021.8
2018-12-29T01:01:23.569Z,1021.8
2018-12-29T01:02:24.930Z,1021.9
2018-12-29T01:03:26.294Z,1021.9
2018-12-29T01:04:27.658Z,1021.9
2018-12-29T01:05:29.022Z,1021.9
2018-12-29T01:06:30.387Z,1021.9
2018-12-29T01:07:31.748Z,1021.9
2018-12-29T01:08:33.113Z,1021.9
2018-12-29T01:09:34.488Z,1021.9
2018-12-29T01:10:35.854Z,1021.9
2018-12-29T01:11:37.216Z,1021.9
2018-12-29T01:12:38.581Z,1021.9
2018-12-29T01:13:39.943Z,1022.0
2018-12-29T01:14:41.303Z,1021.9
2018-12-29T01:15:42.671Z,1022.0
2018-12-29T01:16:44.033Z,1022.0
2018-12-29T01:17:45.398Z,1022.0
2018-12-29T01:18:46.760Z,1021.9
2018-12-29T01:19:48.124Z,1021.9
2018-12-29T01:20:49.563Z,1021.8
2018-12-29T01:21:50.920Z,1021.9
2018-12-29T01:22:52.284Z,1021.9
2018-12-29T01:23:53.645Z,1021.9
2018-12-29T01:24:55.010Z,1021.9
2018-12-29T01:25:56.374Z,1021.9
2018-12-29T01:26:57.745Z,1021.9
2018-12-29T01:27:59.102Z,1021.9
2018-12-29T01:29:00.467Z,1021.9
2018-12-29T01:30:01.824Z,1021.9
2018-12-29T01:31:03.189Z,1021.9
2018-12-29T01:32:04.555Z,1021.9
2018-12-29T01:33:05.916Z,1021.9
2018-12-29T01:34:07.279Z,1021.9
2018-12-29T01:35:08.643Z,1022.0
2018-12-29T01:36:10.009Z,1022.0
2018-12-29T01:37:11.368Z,1021.9
2018-12-29T01:38:12.732Z,1022.0
2018-12-29T01:39:14.096Z,1021.9
2018-12-29T01:40:15.461Z,1022.0
2018-12-29T01:41:16.820Z,1021.9
2018-12-29T01:42:18.186Z,1021.9
2018-12-29T01:43:19.551Z,1022.0
2018-12-29T01:44:20.914Z,1022.1
2018-12-29T01:45:22.276Z,1022.0
2018-12-29T01:46:23.640Z,1022.1
2018-12-29T01:47:25.001Z,1022.1
2018-12-29T01:48:26.369Z,1022.1
2018-12-29T01:49:27.732Z,1022.0
2018-12-29T01:50:29.093Z,1022.0
2018-12-29T01:51:30.453Z,1022.0
2018-12-29T01:52:31.817Z,1022.1
2018-12-29T01:53:33.180Z,1022.1
2018-12-29T01:54:34.543Z,1022.1
2018-12-29T01:55:35.910Z,1022.1
2018-12-29T01:56:37.272Z,1022.1
2018-12-29T01:57:38.637Z,1022.1
2018-12-29T01:58:39.998Z,1022.1
2018-12-29T01:59:41.361Z,1022.0
2018-12-29T02:00:42.729Z,1022.0
2018-12-29T02:01:44.092Z,1022.0
2018-12-29T02:02:45.455Z,1022.0
2018-12-29T02:03:46.820Z,1022.0
2018-12-29T02:04:48.180Z,1022.0
2018-12-29T02:05:49.571Z,1022.1
2018-12-29T02:06:50.937Z,1022.0
2018-12-29T02:07:52.299Z,1022.1
2018-12-29T02:08:53.664Z,1022.1
2018-12-29T02:09:55.027Z,1022.1
2018-12-29T02:10:56.392Z,1022.1
2018-12-29T02:11:57.753Z,1022.1
2018-12-29T02:12:59.169Z,1022.1
2018-12-29T02:14:00.477Z,1022.1
2018-12-29T02:15:01.840Z,1022.1
2018-12-29T02:16:03.207Z,1022.1
2018-12-29T02:17:04.573Z,1022.0
2018-12-29T02:18:05.935Z,1022.0
2018-12-29T02:19:07.299Z,1022.1
2018-12-29T02:20:08.664Z,1022.1
2018-12-29T02:21:10.025Z,1022.1
2018-12-29T02:22:11.387Z,1022.0
2018-12-29T02:23:12.751Z,1022.0
2018-12-29T02:24:14.113Z,1022.0
2018-12-29T02:25:15.479Z,1022.0
2018-12-29T02:26:16.842Z,1022.0
2018-12-29T02:27:18.205Z,1022.0
2018-12-29T02:28:19.566Z,1022.1
2018-12-29T02:29:20.929Z,1022.1
2018-12-29T02:30:22.296Z,1022.1
2018-12-29T02:31:23.662Z,1022.1
2018-12-29T02:32:25.026Z,1022.1
2018-12-29T02:33:26.388Z,1022.1
2018-12-29T02:34:27.748Z,1022.1
2018-12-29T02:35:29.111Z,1022.1
2018-12-29T02:36:30.473Z,1022.1
2018-12-29T02:37:31.840Z,1022.2
2018-12-29T02:38:33.206Z,1022.1
2018-12-29T02:39:34.586Z,1022.2
2018-12-29T02:40:35.952Z,1022.2
2018-12-29T02:41:37.314Z,1022.1
2018-12-29T02:42:38.678Z,1022.2
2018-12-29T02:43:40.046Z,1022.2
2018-12-29T02:44:41.408Z,1022.2
2018-12-29T02:45:42.773Z,1022.2
2018-12-29T02:46:44.137Z,1022.2
2018-12-29T02:47:45.499Z,1022.2
2018-12-29T02:48:46.862Z,1022.2
2018-12-29T02:49:48.226Z,1022.2
2018-12-29T02:50:49.588Z,1022.2
2018-12-29T02:51:50.953Z,1022.2
2018-12-29T02:52:52.317Z,1022.2
2018-12-29T02:53:53.692Z,1022.2
2018-12-29T02:54:55.043Z,1022.2
2018-12-29T02:55:56.402Z,1022.2
2018-12-29T02:56:57.770Z,1022.2
2018-12-29T02:57:59.130Z,1022.2
2018-12-29T02:59:00.509Z,1022.3
2018-12-29T03:00:01.857Z,1022.3
2018-12-29T03:01:03.220Z,1022.2
2018-12-29T03:02:04.581Z,1022.2
2018-12-29T03:03:05.947Z,1022.2
2018-12-29T03:04:07.308Z,1022.2
2018-12-29T03:05:08.672Z,1022.2
2018-12-29T03:06:10.034Z,1022.1
2018-12-29T03:07:11.399Z,1022.1
2018-12-29T03:08:12.762Z,1022.1
2018-12-29T03:09:14.123Z,1022.1
2018-12-29T03:10:15.494Z,1022.1
2018-12-29T03:11:16.854Z,1022.0
2018-12-29T03:12:18.214Z,1022.1
2018-12-29T03:13:19.576Z,1022.0
2018-12-29T03:14:20.944Z,1022.0
2018-12-29T03:15:22.311Z,1022.0
2018-12-29T03:16:23.675Z,1022.0
2018-12-29T03:17:25.029Z,1022.1
2018-12-29T03:18:26.397Z,1022.0
2018-12-29T03:19:27.762Z,1022.1
2018-12-29T03:20:29.126Z,1022.1
2018-12-29T03:21:30.495Z,1022.1
2018-12-29T03:22:31.856Z,1022.0
2018-12-29T03:23:33.216Z,1022.1
2018-12-29T03:24:34.577Z,1022.1
2018-12-29T03:25:35.941Z,1022.1
2018-12-29T03:26:37.303Z,1022.0
2018-12-29T03:27:38.668Z,1022.1
2018-12-29T03:28:40.033Z,1022.1
2018-12-29T03:29:41.398Z,1022.1
2018-12-29T03:30:42.760Z,1022.1
2018-12-29T03:31:44.132Z,1022.1
2018-12-29T03:32:45.488Z,1022.1
2018-12-29T03:33:46.854Z,1022.1
2018-12-29T03:34:48.216Z,1022.1
2018-12-29T03:35:49.579Z,1022.2
2018-12-29T03:36:50.947Z,1022.1
2018-12-29T03:37:52.305Z,1022.1
2018-12-29T03:38:53.676Z,1022.1
2018-12-29T03:39:55.041Z,1022.1
2018-12-29T03:40:56.399Z,1022.1
2018-12-29T03:41:57.763Z,1022.0
2018-12-29T03:42:59.127Z,1022.0
2018-12-29T03:44:00.494Z,1022.0
2018-12-29T03:45:01.855Z,1022.0
2018-12-29T03:46:03.214Z,1022.0
2018-12-29T03:47:04.582Z,1022.0
2018-12-29T03:48:05.941Z,1022.0
2018-12-29T03:49:07.304Z,1022.0
2018-12-29T03:50:08.671Z,1022.0
2018-12-29T03:51:10.037Z,1022.0
2018-12-29T03:52:11.399Z,1022.0
2018-12-29T03:53:12.758Z,1022.0
2018-12-29T03:54:14.129Z,1022.0
2018-12-29T03:55:15.485Z,1022.0
2018-12-29T03:56:16.850Z,1022.0
2018-12-29T03:57:18.213Z,1022.0
2018-12-29T03:58:19.577Z,1022.0
2018-12-29T03:59:20.940Z,1022.0
2018-12-29T04:00:22.304Z,1022.0
2018-12-29T04:01:23.671Z,1022.1
2018-12-29T04:02:25.032Z,1022.0
2018-12-29T04:03:26.394Z,1022.0
2018-12-29T04:04:27.757Z,1022.1
2018-12-29T04:05:29.120Z,1022.0
2018-12-29T04:06:30.482Z,1022.1
2018-12-29T04:07:31.847Z,1022.0
2018-12-29T04:08:33.211Z,1022.0
2018-12-29T04:09:34.573Z,1022.1
2018-12-29T04:10:35.937Z,1022.0
2018-12-29T04:11:37.301Z,1022.0
2018-12-29T04:12:38.671Z,1022.0
2018-12-29T04:13:40.032Z,1022.0
2018-12-29T04:14:41.392Z,1022.0
2018-12-29T04:15:42.759Z,1022.0
2018-12-29T04:16:44.119Z,1022.0
2018-12-29T04:17:45.482Z,1022.0
2018-12-29T04:18:46.850Z,1021.9
2018-12-29T04:19:48.213Z,1021.9
2018-12-29T04:20:49.576Z,1021.9
2018-12-29T04:21:50.938Z,1022.0
2018-12-29T04:22:52.302Z,1021.9
2018-12-29T04:23:53.668Z,1021.9
2018-12-29T04:24:55.035Z,1021.9
2018-12-29T04:25:56.399Z,1021.9
2018-12-29T04:26:57.759Z,1021.8
2018-12-29T04:27:59.221Z,1021.8
2018-12-29T04:29:00.612Z,1021.8
2018-12-29T04:30:01.976Z,1021.8
2018-12-29T04:31:03.341Z,1021.8
2018-12-29T04:32:04.702Z,1021.8
2018-12-29T04:33:06.066Z,1021.7
2018-12-29T04:34:07.430Z,1021.7
2018-12-29T04:35:08.793Z,1021.7
2018-12-29T04:36:10.157Z,1021.7
2018-12-29T04:37:11.521Z,1021.7
2018-12-29T04:38:12.882Z,1021.7
2018-12-29T04:39:14.244Z,1021.7
2018-12-29T04:40:15.613Z,1021.7
2018-12-29T04:41:16.981Z,1021.7
2018-12-29T04:42:18.350Z,1021.7
2018-12-29T04:43:19.710Z,1021.7
2018-12-29T04:44:21.067Z,1021.7
2018-12-29T04:45:22.432Z,1021.7
2018-12-29T04:46:23.796Z,1021.7
2018-12-29T04:47:25.161Z,1021.6
2018-12-29T04:48:26.525Z,1021.7
2018-12-29T04:49:27.883Z,1021.6
2018-12-29T04:50:29.246Z,1021.6
2018-12-29T04:51:30.610Z,1021.6
2018-12-29T04:52:31.974Z,1021.6
2018-12-29T04:53:33.340Z,1021.6
2018-12-29T04:54:34.708Z,1021.6
2018-12-29T04:55:36.069Z,1021.6
2018-12-29T04:56:37.430Z,1021.5
2018-12-29T04:57:38.794Z,1021.5
2018-12-29T04:58:40.159Z,1021.5
2018-12-29T04:59:41.523Z,1021.5
2018-12-29T05:00:42.888Z,1021.5
2018-12-29T05:01:44.249Z,1021.5
2018-12-29T05:02:45.619Z,1021.4
2018-12-29T05:03:46.979Z,1021.4
2018-12-29T05:04:48.344Z,1021.4
2018-12-29T05:05:49.706Z,1021.4
2018-12-29T05:06:51.072Z,1021.4
2018-12-29T05:07:52.435Z,1021.5
2018-12-29T05:08:53.804Z,1021.5
2018-12-29T05:09:55.168Z,1021.5
2018-12-29T05:10:56.530Z,1021.6
2018-12-29T05:11:57.891Z,1021.5
2018-12-29T05:12:59.258Z,1021.6
2018-12-29T05:14:00.617Z,1021.5
2018-12-29T05:15:01.984Z,1021.6
2018-12-29T05:16:03.348Z,1021.6
2018-12-29T05:17:04.711Z,1021.6
2018-12-29T05:18:06.070Z,1021.6
2018-12-29T05:19:07.433Z,1021.6
2018-12-29T05:20:08.793Z,1021.7
2018-12-29T05:21:10.161Z,1021.6
2018-12-29T05:22:11.524Z,1021.6
2018-12-29T05:23:12.887Z,1021.6
2018-12-29T05:24:14.250Z,1021.5
2018-12-29T05:25:15.617Z,1021.6
2018-12-29T05:26:16.976Z,1021.6
2018-12-29T05:27:18.340Z,1021.6
2018-12-29T05:28:19.704Z,1021.6
2018-12-29T05:29:21.067Z,1021.6
2018-12-29T05:30:22.432Z,1021.6
2018-12-29T05:31:23.799Z,1021.6
2018-12-29T05:32:25.166Z,1021.6
2018-12-29T05:33:26.527Z,1021.6
2018-12-29T05:34:27.886Z,1021.7
2018-12-29T05:35:29.256Z,1021.7
2018-12-29T05:36:30.613Z,1021.7
2018-12-29T05:37:31.977Z,1021.7
2018-12-29T05:38:33.341Z,1021.7
2018-12-29T05:39:34.717Z,1021.8
2018-12-29T05:40:36.078Z,1021.7
2018-12-29T05:41:37.441Z,1021.8
2018-12-29T05:42:38.803Z,1021.7
2018-12-29T05:43:40.166Z,1021.7
2018-12-29T05:44:41.532Z,1021.8
2018-12-29T05:45:42.897Z,1021.8
2018-12-29T05:46:44.259Z,1021.8
2018-12-29T05:47:45.623Z,1021.8
2018-12-29T05:48:46.986Z,1021.9
2018-12-29T05:49:48.349Z,1021.9
2018-12-29T05:50:49.712Z,1021.9
2018-12-29T05:51:51.077Z,1021.9
2018-12-29T05:52:52.445Z,1021.9
2018-12-29T05:53:53.810Z,1021.9
2018-12-29T05:54:55.166Z,1021.9
2018-12-29T05:55:56.532Z,1022.0
2018-12-29T05:56:57.895Z,1021.9
2018-12-29T05:57:59.262Z,1022.0
2018-12-29T05:59:00.627Z,1022.0
2018-12-29T06:00:01.995Z,1022.0
2018-12-29T06:01:03.352Z,1022.0
2018-12-29T06:02:04.718Z,1022.1
2018-12-29T06:03:06.076Z,1022.0
2018-12-29T06:04:07.442Z,1022.0
2018-12-29T06:05:08.805Z,1022.0
2018-12-29T06:06:10.169Z,1022.0
2018-12-29T06:07:11.531Z,1022.1
2018-12-29T06:08:12.891Z,1022.1
2018-12-29T06:09:14.254Z,1022.1
2018-12-29T06:10:15.620Z,1022.1
2018-12-29T06:11:16.983Z,1022.1
2018-12-29T06:12:18.346Z,1022.1
2018-12-29T06:13:19.710Z,1022.1
2018-12-29T06:14:21.074Z,1022.1
2018-12-29T06:15:22.437Z,1022.1
2018-12-29T06:16:27.658Z,1022.1
2018-12-29T06:17:25.129Z,1022.1
2018-12-29T06:18:26.491Z,1022.1
2018-12-29T06:19:27.857Z,1022.1
2018-12-29T06:20:29.222Z,1022.1
2018-12-29T06:21:30.594Z,1022.1
2018-12-29T06:22:31.948Z,1022.1
2018-12-29T06:23:33.306Z,1022.2
2018-12-29T06:24:34.670Z,1022.2
2018-12-29T06:25:36.033Z,1022.1
2018-12-29T06:26:37.402Z,1022.1
2018-12-29T06:27:38.761Z,1022.1
2018-12-29T06:28:40.131Z,1022.1
2018-12-29T06:29:41.489Z,1022.0
2018-12-29T06:30:42.855Z,1022.0
2018-12-29T06:31:44.242Z,1022.0
2018-12-29T06:32:45.579Z,1022.1
2018-12-29T06:33:46.942Z,1022.1
2018-12-29T06:34:48.307Z,1022.1
2018-12-29T06:35:49.669Z,1022.1
2018-12-29T06:36:51.032Z,1022.1
2018-12-29T06:37:52.396Z,1022.1
2018-12-29T06:38:53.760Z,1022.1
2018-12-29T06:39:55.121Z,1022.1
2018-12-29T06:40:56.484Z,1022.0
2018-12-29T06:41:57.848Z,1022.1
2018-12-29T06:42:59.213Z,1022.1
2018-12-29T06:44:00.577Z,1022.1
2018-12-29T06:45:01.942Z,1022.1
2018-12-29T06:46:03.301Z,1022.1
2018-12-29T06:47:04.666Z,1022.1
2018-12-29T06:48:06.027Z,1022.1
2018-12-29T06:49:07.394Z,1022.1
2018-12-29T06:50:08.759Z,1022.1
2018-12-29T06:51:10.123Z,1022.2
2018-12-29T06:52:11.483Z,1022.1
2018-12-29T06:53:12.849Z,1022.1
2018-12-29T06:54:14.210Z,1022.1
2018-12-29T06:55:15.575Z,1022.1
2018-12-29T06:56:16.941Z,1022.2
2018-12-29T06:57:18.305Z,1022.1
2018-12-29T06:58:19.663Z,1022.2
2018-12-29T06:59:21.028Z,1022.1
2018-12-29T07:00:22.391Z,1022.1
2018-12-29T07:01:23.755Z,1022.1
2018-12-29T07:02:25.121Z,1022.1
2018-12-29T07:03:26.483Z,1022.1
2018-12-29T07:04:27.847Z,1022.1
2018-12-29T07:05:29.208Z,1022.1
2018-12-29T07:06:30.583Z,1022.1
2018-12-29T07:07:31.941Z,1022.1
2018-12-29T07:08:33.303Z,1022.1
2018-12-29T07:09:34.665Z,1022.1
2018-12-29T07:10:36.026Z,1022.1
2018-12-29T07:11:38.618Z,1022.1
2018-12-29T07:12:38.720Z,1022.2
2018-12-29T07:13:40.083Z,1022.2
2018-12-29T07:14:41.444Z,1022.1
2018-12-29T07:15:42.809Z,1022.2
2018-12-29T07:16:44.172Z,1022.2
2018-12-29T07:17:45.537Z,1022.2
2018-12-29T07:18:46.904Z,1022.2
2018-12-29T07:19:48.269Z,1022.3
2018-12-29T07:20:49.636Z,1022.2
2018-12-29T07:21:50.998Z,1022.1
2018-12-29T07:22:52.366Z,1022.2
2018-12-29T07:23:53.733Z,1022.2
2018-12-29T07:24:55.098Z,1022.2
2018-12-29T07:25:56.466Z,1022.3
2018-12-29T07:26:57.829Z,1022.2
2018-12-29T07:27:59.192Z,1022.3
2018-12-29T07:29:00.568Z,1022.3
2018-12-29T07:30:01.932Z,1022.3
2018-12-29T07:31:03.302Z,1022.3
2018-12-29T07:32:04.667Z,1022.4
2018-12-29T07:33:06.036Z,1022.4
2018-12-29T07:34:07.399Z,1022.4
2018-12-29T07:35:08.763Z,1022.4
2018-12-29T07:36:10.128Z,1022.4
2018-12-29T07:37:11.492Z,1022.4
2018-12-29T07:38:12.858Z,1022.4
2018-12-29T07:39:14.230Z,1022.4
2018-12-29T07:40:15.597Z,1022.4
2018-12-29T07:41:16.960Z,1022.4
2018-12-29T07:42:18.324Z,1022.4
2018-12-29T07:43:19.689Z,1022.5
2018-12-29T07:44:21.053Z,1022.5
2018-12-29T07:45:22.422Z,1022.5
2018-12-29T07:46:23.809Z,1022.5
2018-12-29T07:47:25.159Z,1022.5
2018-12-29T07:48:26.524Z,1022.5
2018-12-29T07:49:27.893Z,1022.5
2018-12-29T07:50:29.275Z,1022.5
2018-12-29T07:51:30.644Z,1022.5
2018-12-29T07:52:32.016Z,1022.4
2018-12-29T07:53:33.386Z,1022.5
2018-12-29T07:54:34.754Z,1022.4
2018-12-29T07:55:36.119Z,1022.4
2018-12-29T07:56:37.483Z,1022.4
2018-12-29T07:57:38.852Z,1022.4
2018-12-29T07:58:40.218Z,1022.4
2018-12-29T07:59:41.584Z,1022.4
2018-12-29T08:00:42.956Z,1022.4
2018-12-29T08:01:44.323Z,1022.4
2018-12-29T08:02:45.689Z,1022.4
2018-12-29T08:03:47.057Z,1022.4
2018-12-29T08:04:48.421Z,1022.4
2018-12-29T08:05:49.787Z,1022.4
2018-12-29T08:06:51.155Z,1022.4
2018-12-29T08:07:52.527Z,1022.4
2018-12-29T08:08:53.895Z,1022.4
2018-12-29T08:09:55.260Z,1022.3
2018-12-29T08:10:56.627Z,1022.3
2018-12-29T08:11:57.993Z,1022.4
2018-12-29T08:12:59.360Z,1022.4
2018-12-29T08:14:00.793Z,1022.4
2018-12-29T08:15:02.102Z,1022.4
2018-12-29T08:16:03.468Z,1022.4
2018-12-29T08:17:04.834Z,1022.3
2018-12-29T08:18:06.200Z,1022.3
2018-12-29T08:19:07.571Z,1022.3
2018-12-29T08:20:08.935Z,1022.3
2018-12-29T08:21:10.318Z,1022.3
2018-12-29T08:22:11.681Z,1022.3
2018-12-29T08:23:13.052Z,1022.3
2018-12-29T08:24:14.417Z,1022.3
2018-12-29T08:25:15.790Z,1022.3
2018-12-29T08:26:17.152Z,1022.3
2018-12-29T08:27:18.522Z,1022.2
2018-12-29T08:28:19.890Z,1022.3
2018-12-29T08:29:21.263Z,1022.2
2018-12-29T08:30:22.626Z,1022.3
2018-12-29T08:31:23.988Z,1022.2
2018-12-29T08:32:25.356Z,1022.2
2018-12-29T08:33:26.722Z,1022.1
2018-12-29T08:34:28.089Z,1022.1
2018-12-29T08:35:29.459Z,1022.2
2018-12-29T08:36:30.827Z,1022.1
2018-12-29T08:37:32.198Z,1022.1
2018-12-29T08:38:33.564Z,1022.1
2018-12-29T08:39:34.930Z,1022.1
2018-12-29T08:40:36.295Z,1022.0
2018-12-29T08:41:37.664Z,1022.0
2018-12-29T08:42:39.032Z,1022.0
2018-12-29T08:43:40.398Z,1022.1
2018-12-29T08:44:41.769Z,1022.0
2018-12-29T08:45:43.136Z,1022.0
2018-12-29T08:46:44.503Z,1022.0
2018-12-29T08:47:45.870Z,1022.0
2018-12-29T08:48:47.238Z,1022.0
2018-12-29T08:49:48.606Z,1022.0
2018-12-29T08:50:49.978Z,1022.0
2018-12-29T08:51:51.355Z,1021.9
2018-12-29T08:52:52.755Z,1022.0
2018-12-29T08:53:54.125Z,1021.9
2018-12-29T08:54:55.491Z,1021.9
2018-12-29T08:55:56.861Z,1021.9
2018-12-29T08:56:58.230Z,1021.8
2018-12-29T08:57:59.596Z,1021.9
2018-12-29T08:59:00.969Z,1021.8
2018-12-29T09:00:02.369Z,1021.9
2018-12-29T09:01:03.734Z,1021.9
2018-12-29T09:02:05.100Z,1021.8
2018-12-29T09:03:06.470Z,1021.8
2018-12-29T09:04:07.835Z,1021.9
2018-12-29T09:05:09.207Z,1021.8
2018-12-29T09:06:10.572Z,1021.8
2018-12-29T09:07:11.939Z,1021.8
2018-12-29T09:08:13.308Z,1021.9
2018-12-29T09:09:14.706Z,1021.9
2018-12-29T09:10:16.071Z,1021.8
2018-12-29T09:11:17.445Z,1021.9
2018-12-29T09:12:18.833Z,1021.9
2018-12-29T09:13:20.202Z,1021.9
2018-12-29T09:14:21.569Z,1021.9
2018-12-29T09:15:22.937Z,1021.9
2018-12-29T09:16:24.310Z,1021.9
2018-12-29T09:17:25.677Z,1021.9
2018-12-29T09:18:27.042Z,1021.9
2018-12-29T09:19:28.418Z,1021.9
2018-12-29T09:20:29.783Z,1021.9
2018-12-29T09:21:31.150Z,1021.9
2018-12-29T09:22:32.520Z,1021.9
2018-12-29T09:23:33.889Z,1021.9
2018-12-29T09:24:35.255Z,1022.0
2018-12-29T09:25:36.624Z,1022.0
2018-12-29T09:26:38.007Z,1022.0
2018-12-29T09:27:39.378Z,1021.9
2018-12-29T09:28:40.746Z,1022.0
2018-12-29T09:29:42.113Z,1022.0
2018-12-29T09:30:43.480Z,1021.9
2018-12-29T09:31:44.861Z,1022.0
2018-12-29T09:32:46.228Z,1022.0
2018-12-29T09:33:47.597Z,1021.9
2018-12-29T09:34:48.967Z,1021.9
2018-12-29T09:35:50.334Z,1021.9
2018-12-29T09:36:51.715Z,1021.9
2018-12-29T09:37:53.083Z,1021.9
2018-12-29T09:38:54.453Z,1021.9
2018-12-29T09:39:55.821Z,1021.9
2018-12-29T09:40:57.204Z,1021.9
2018-12-29T09:41:58.569Z,1021.9
2018-12-29T09:42:59.935Z,1021.9
2018-12-29T09:44:01.302Z,1021.9
2018-12-29T09:45:02.672Z,1021.8
2018-12-29T09:46:04.041Z,1021.8
2018-12-29T09:47:05.411Z,1021.8
2018-12-29T09:48:06.780Z,1021.8
2018-12-29T09:49:08.151Z,1021.8
2018-12-29T09:50:09.536Z,1021.8
2018-12-29T09:51:10.906Z,1021.8
2018-12-29T09:52:12.295Z,1021.8
2018-12-29T09:53:13.664Z,1021.8
2018-12-29T09:54:15.039Z,1021.8
2018-12-29T09:55:16.419Z,1021.8
2018-12-29T09:56:17.791Z,1021.8
2018-12-29T09:57:19.160Z,1021.8
2018-12-29T09:58:20.528Z,1021.7
2018-12-29T09:59:21.908Z,1021.7
2018-12-29T10:00:23.274Z,1021.7
2018-12-29T10:01:24.643Z,1021.7
2018-12-29T10:02:26.019Z,1021.7
2018-12-29T10:03:27.390Z,1021.6
2018-12-29T10:04:28.757Z,1021.6
2018-12-29T10:05:30.125Z,1021.6
2018-12-29T10:06:31.498Z,1021.5
2018-12-29T10:07:32.867Z,1021.5
2018-12-29T10:08:34.240Z,1021.5
2018-12-29T10:09:35.611Z,1021.4
2018-12-29T10:10:36.983Z,1021.4
2018-12-29T10:11:38.350Z,1021.4
2018-12-29T10:12:39.719Z,1021.4
2018-12-29T10:13:41.482Z,1021.4
2018-12-29T10:14:42.847Z,1021.3
2018-12-29T10:15:44.220Z,1021.3
2018-12-29T10:16:45.590Z,1021.2
2018-12-29T10:17:46.963Z,1021.2
2018-12-29T10:18:48.332Z,1021.2
2018-12-29T10:19:49.703Z,1021.1
2018-12-29T10:20:51.073Z,1021.2
2018-12-29T10:21:52.445Z,1021.2
2018-12-29T10:22:53.811Z,1021.1
2018-12-29T10:23:55.183Z,1021.1
2018-12-29T10:24:56.553Z,1021.1
2018-12-29T10:25:57.924Z,1021.0
2018-12-29T10:26:59.296Z,1020.9
2018-12-29T10:28:00.666Z,1020.9
2018-12-29T10:29:02.035Z,1020.9
2018-12-29T10:30:03.407Z,1020.9
2018-12-29T10:31:04.781Z,1020.8
2018-12-29T10:32:06.154Z,1020.9
2018-12-29T10:33:07.524Z,1020.8
2018-12-29T10:34:08.886Z,1020.8
2018-12-29T10:35:10.261Z,1020.7
2018-12-29T10:36:11.632Z,1020.7
2018-12-29T10:37:13.007Z,1020.7
2018-12-29T10:38:14.395Z,1020.7
2018-12-29T10:39:15.771Z,1020.7
2018-12-29T10:40:17.160Z,1020.7
2018-12-29T10:41:18.574Z,1020.7
2018-12-29T10:42:19.945Z,1020.7
2018-12-29T10:43:21.324Z,1020.7
2018-12-29T10:44:22.696Z,1020.7
2018-12-29T10:45:24.072Z,1020.7
2018-12-29T10:46:25.444Z,1020.6
2018-12-29T10:47:26.811Z,1020.6
2018-12-29T10:48:28.180Z,1020.6
2018-12-29T10:49:29.550Z,1020.6
2018-12-29T10:50:30.920Z,1020.6
2018-12-29T10:51:32.315Z,1020.6
2018-12-29T10:52:33.684Z,1020.6
2018-12-29T10:53:35.063Z,1020.6
2018-12-29T10:54:36.430Z,1020.6
2018-12-29T10:55:37.818Z,1020.6
2018-12-29T10:56:39.210Z,1020.6
2018-12-29T10:57:40.568Z,1020.6
2018-12-29T10:58:41.954Z,1020.6
2018-12-29T10:59:43.309Z,1020.6
2018-12-29T11:00:44.711Z,1020.6
2018-12-29T11:01:46.190Z,1020.6
2018-12-29T11:02:47.562Z,1020.5
2018-12-29T11:03:48.937Z,1020.5
2018-12-29T11:04:50.305Z,1020.6
2018-12-29T11:05:51.700Z,1020.5
2018-12-29T11:06:53.094Z,1020.5
2018-12-29T11:07:54.528Z,1020.5
2018-12-29T11:08:55.908Z,1020.6
2018-12-29T11:09:57.281Z,1020.5
2018-12-29T11:10:58.694Z,1020.5
2018-12-29T11:12:00.095Z,1020.5
2018-12-29T11:13:01.471Z,1020.6
2018-12-29T11:14:02.866Z,1020.6
2018-12-29T11:15:04.252Z,1020.5
2018-12-29T11:16:05.643Z,1020.5
2018-12-29T11:17:07.038Z,1020.4
2018-12-29T11:18:08.404Z,1020.4
2018-12-29T11:19:09.812Z,1020.4
2018-12-29T11:20:11.176Z,1020.4
2018-12-29T11:21:12.551Z,1020.4
2018-12-29T11:22:13.923Z,1020.3
2018-12-29T11:23:15.291Z,1020.3
2018-12-29T11:24:16.661Z,1020.3
2018-12-29T11:25:18.030Z,1020.3
2018-12-29T11:26:19.405Z,1020.2
2018-12-29T11:27:20.775Z,1020.2
2018-12-29T11:28:22.148Z,1020.2
2018-12-29T11:29:23.530Z,1020.2
2018-12-29T11:30:24.924Z,1020.2
2018-12-29T11:31:26.345Z,1020.1
2018-12-29T11:32:27.714Z,1020.1
2018-12-29T11:33:29.101Z,1020.0
2018-12-29T11:34:30.498Z,1020.0
2018-12-29T11:35:31.873Z,1020.0
2018-12-29T11:36:33.243Z,1019.9
2018-12-29T11:37:34.668Z,1020.0
2018-12-29T11:38:36.040Z,1020.0
2018-12-29T11:39:37.451Z,1019.9
2018-12-29T11:40:38.856Z,1020.0
2018-12-29T11:41:40.498Z,1019.9
2018-12-29T11:42:41.906Z,1019.9
2018-12-29T11:43:43.309Z,1019.9
2018-12-29T11:44:44.757Z,1019.8
2018-12-29T11:45:46.152Z,1019.8
2018-12-29T11:46:47.520Z,1019.9
2018-12-29T11:47:50.000Z,1019.9
2018-12-29T11:48:50.259Z,1019.9
2018-12-29T11:49:51.592Z,1019.9
2018-12-29T11:50:52.982Z,1020.0
2018-12-29T11:51:54.348Z,1020.0
2018-12-29T11:52:55.711Z,1020.0
2018-12-29T11:53:57.101Z,1020.1
2018-12-29T11:54:58.549Z,1020.1
2018-12-29T11:55:59.919Z,1020.1
2018-12-29T11:57:01.308Z,1020.2
2018-12-29T11:58:02.693Z,1020.1
2018-12-29T11:59:04.064Z,1020.1
2018-12-29T12:00:05.441Z,1020.1
2018-12-29T12:01:06.823Z,1020.0
2018-12-29T12:02:08.158Z,1020.0
2018-12-29T12:03:09.531Z,1020.0
2018-12-29T12:04:10.906Z,1020.0
2018-12-29T12:05:12.280Z,1020.0
2018-12-29T12:06:13.649Z,1020.1
2018-12-29T12:07:15.068Z,1020.0
2018-12-29T12:08:16.433Z,1020.0
2018-12-29T12:09:17.816Z,1019.9
2018-12-29T12:10:19.224Z,1019.9
2018-12-29T12:11:20.630Z,1019.8
2018-12-29T12:12:22.011Z,1019.8
2018-12-29T12:13:23.384Z,1019.7
2018-12-29T12:14:24.776Z,1019.7
2018-12-29T12:15:26.166Z,1019.6
2018-12-29T12:16:27.582Z,1019.5
2018-12-29T12:17:28.962Z,1019.5
2018-12-29T12:18:30.363Z,1019.4
2018-12-29T12:19:31.740Z,1019.4
2018-12-29T12:20:33.109Z,1019.6
2018-12-29T12:21:34.483Z,1019.7
2018-12-29T12:22:35.844Z,1019.7
2018-12-29T12:23:37.254Z,1019.8
2018-12-29T12:24:38.588Z,1019.8
2018-12-29T12:25:39.992Z,1019.8
2018-12-29T12:26:41.368Z,1019.8
2018-12-29T12:27:42.760Z,1019.7
2018-12-29T12:28:44.098Z,1019.7
2018-12-29T12:29:45.486Z,1019.8
2018-12-29T12:30:46.854Z,1019.8
2018-12-29T12:31:48.223Z,1019.7
2018-12-29T12:32:49.596Z,1019.8
2018-12-29T12:33:50.977Z,1019.8
2018-12-29T12:34:52.358Z,1019.9
2018-12-29T12:35:54.026Z,1019.9
2018-12-29T12:36:55.367Z,1019.8
2018-12-29T12:37:56.733Z,1019.8
2018-12-29T12:38:58.104Z,1019.9
2018-12-29T12:39:59.708Z,1019.8
2018-12-29T12:41:01.510Z,1019.7
2018-12-29T12:42:03.834Z,1019.7
2018-12-29T12:43:06.030Z,1019.6
2018-12-29T12:44:08.383Z,1019.7
2018-12-29T12:45:10.413Z,1019.6